Weather observations for the past three days for
Crookston Municipal Field
Imperial (Metric)
Date Time (cdt) Wind (mph) Vis. (mi.) Weather Sky Cond. Temperature (ºF) Relative Humidity Wind Chill (°F) Heat Index (°F) Pressure Precipitation (in)
Air Dwpt 6 hour altimeter (in) sea level (mb) 1 hr 3 hr 6 hr
Max. Min.
05 22:55 N 10 10.00 Overcast OVC050 35.6 24.8 65% 29 29.96 0.0
05 22:35 N 6 10.00 Overcast OVC050 35.6 24.8 65% 31 29.96 0.0
05 22:15 N 9 10.00 Overcast OVC050 37.4 24.8 60% 31 29.96 0.0
05 21:55 N 3 10.00 Overcast OVC050 37.4 23 56% 29.95 0.0
05 21:35 Calm 10.00 Overcast OVC048 37.4 23 56% 29.95 0.0
05 21:15 N 14 G 18 10.00 Overcast OVC046 37.4 23 56% 30 29.94 0.0
05 20:55 N 10 10.00 Overcast OVC046 37.4 23 56% 31 29.93 0.0
05 20:35 N 15 10.00 Overcast OVC046 37.4 23 56% 29 29.93 0.0
05 20:15 N 13 10.00 Overcast OVC044 37.4 23 56% 30 29.93 0.0
05 19:55 N 14 10.00 Overcast OVC046 37.4 23 56% 30 29.92 0.0
05 19:35 N 14 10.00 Overcast OVC046 39.2 24.8 56% 32 29.92 0.0
05 19:15 N 16 10.00 Overcast OVC044 39.2 24.8 56% 31 29.91 0.0
05 18:55 NW 15 10.00 Overcast OVC044 39.2 24.8 56% 31 29.91 0.0
05 18:35 NW 14 10.00 Overcast OVC046 39.2 23 52% 32 29.91 0.0
05 18:15 N 18 10.00 Overcast OVC046 39.2 23 52% 31 29.91 0.0
05 17:55 N 18 G 23 10.00 Overcast OVC046 39.2 23 52% 31 29.91 0.0
05 17:35 NW 13 G 24 10.00 Overcast OVC046 39.2 23 52% 32 29.91 0.0
05 17:15 NW 15 G 20 10.00 Overcast OVC046 41 23 49% 34 29.9 0.0
05 16:55 N 14 G 23 10.00 Overcast OVC046 41 23 49% 34 29.9 0.0
05 16:35 N 14 10.00 Overcast OVC046 41 23 49% 34 29.89 0.0
05 16:15 N 14 G 24 10.00 Overcast OVC046 41 21.2 45% 34 29.9 0.0
05 15:55 NW 17 10.00 Overcast OVC046 41 23 49% 33 29.89 0.0
05 15:35 NW 13 G 20 10.00 Overcast OVC046 41 23 49% 34 29.9 0.0
05 15:15 NW 12 G 22 10.00 Overcast OVC044 41 23 49% 35 29.9 0.0
05 14:55 N 14 G 18 10.00 Overcast OVC044 39.2 21.2 48% 32 29.9 0.0
05 14:35 NW 14 G 20 10.00 Overcast OVC042 39.2 21.2 48% 32 29.9 0.0
05 14:15 N 16 10.00 Overcast OVC042 39.2 21.2 48% 31 29.89 0.0
05 13:55 NW 17 10.00 Overcast OVC040 39.2 21.2 48% 31 29.89 0.0
05 13:35 NW 17 10.00 Overcast OVC038 39.2 23 52% 31 29.89 0.0
05 13:15 N 16 G 22 10.00 Overcast OVC036 37.4 24.8 60% 29 29.88 0.0
05 12:55 N 15 10.00 Overcast BKN032 OVC038 37.4 24.8 60% 29 29.88 0.0
05 12:35 N 15 G 20 10.00 Overcast OVC032 35.6 24.8 65% 27 29.89 0.0
05 12:15 NW 15 10.00 Overcast OVC032 35.6 23 60% 27 29.89 0.0
05 11:55 NW 14 G 20 10.00 Overcast OVC034 35.6 23 60% 27 29.88 0.0
05 11:35 NW 16 G 21 10.00 Overcast OVC030 35.6 23 60% 27 29.88 0.0
05 11:15 N 16 G 21 10.00 Overcast OVC030 35.6 23 60% 27 29.87 0.0
05 10:55 NW 13 10.00 Overcast BKN030 OVC035 33.8 23 65% 25 29.87 0.0
05 10:35 NW 15 G 22 10.00 Overcast OVC034 35.6 23 60% 27 29.86 0.0
05 10:15 N 15 G 21 10.00 Overcast SCT029 OVC036 33.8 23 65% 25 29.86 0.0
05 09:55 N 17 10.00 Overcast SCT026 OVC036 33.8 23 65% 24 29.86 0.0
05 09:35 N 17 10.00 Mostly Cloudy SCT026 BKN034 33.8 23 65% 24 29.85 0.0
05 09:15 N 17 10.00 Overcast BKN026 OVC036 33.8 24.8 70% 24 29.84 0.0
05 08:55 N 13 10.00 Mostly Cloudy SCT026 BKN032 BKN100 33.8 24.8 70% 25 29.84 0.0
05 08:35 N 17 10.00 Overcast BKN024 OVC100 33.8 24.8 70% 24 29.83 0.0
05 08:15 N 16 10.00 Overcast BKN022 BKN029 OVC100 33.8 26.6 75% 24 29.82 0.0
05 07:55 N 17 10.00 Overcast SCT024 OVC100 33.8 26.6 75% 24 29.82 0.0
05 07:35 NW 12 10.00 Overcast SCT021 BKN044 OVC100 33.8 28.4 81% 26 29.81 0.0
05 07:15 NW 9 10.00 Overcast OVC042 33.8 26.6 75% 27 29.81 0.0
05 06:55 NW 10 10.00 Overcast OVC038 32 26.6 80% 24 29.8 0.0
05 06:35 NW 9 10.00 Overcast OVC036 32 26.6 80% 25 29.8 0.0
05 06:15 NW 10 10.00 Overcast OVC036 32 26.6 80% 24 29.79 0.0
05 05:55 NW 9 10.00 Overcast OVC036 33.8 24.8 70% 27 29.79 0.0
05 05:35 NW 8 10.00 Overcast OVC036 32 24.8 75% 25 29.79 0.0
05 05:15 NW 10 10.00 Overcast OVC036 33.8 24.8 70% 26 29.78 0.0
05 04:55 NW 12 G 17 10.00 Overcast OVC036 33.8 24.8 70% 26 29.79 0.0
05 04:35 NW 14 10.00 Overcast OVC038 33.8 24.8 70% 25 29.78 0.0
05 04:15 N 14 10.00 Overcast OVC042 33.8 24.8 70% 25 29.78 0.0
05 03:55 NW 9 10.00 Overcast OVC044 33.8 24.8 70% 27 29.78 0.0
05 03:35 N 14 10.00 Overcast BKN044 OVC050 33.8 23 65% 25 29.77 0.0
05 03:15 NW 9 10.00 Overcast OVC048 33.8 23 65% 27 29.77 0.0
05 02:55 Calm 10.00 Overcast BKN050 OVC080 33.8 21.2 60% 29.77 0.0
05 02:35 NW 10 10.00 Overcast OVC080 33.8 23 65% 26 29.76 0.0
05 02:15 NW 9 10.00 Overcast OVC080 33.8 23 65% 27 29.76 0.0
05 01:55 Calm 10.00 Overcast OVC080 33.8 23 65% 29.76 0.0
05 01:35 NW 9 10.00 Overcast OVC080 33.8 23 65% 27 29.76 0.0
05 01:15 NW 10 10.00 Overcast OVC080 35.6 23 60% 29 29.76 0.0
05 00:55 NW 10 10.00 Overcast OVC090 35.6 23 60% 29 29.76 0.0
05 00:35 NW 9 10.00 Overcast SCT070 OVC090 35.6 23 60% 29 29.75 0.0
05 00:15 NW 8 10.00 Overcast OVC090 33.8 23 65% 28 29.75 0.0
04 23:55 Calm 10.00 Overcast OVC090 33.8 23 65% 29.75 0.0
04 23:35 Calm 10.00 Overcast OVC090 30.2 23 75% 29.75 0.0
04 23:15 Calm 10.00 Overcast OVC090 30.2 23 75% 29.75 0.0
04 22:55 Calm 10.00 Mostly Cloudy BKN090 30.2 23 75% 29.75 0.0
04 22:35 Calm 10.00 Partly Cloudy SCT090 32 23 69% 29.75 0.0
04 22:15 Calm 10.00 Fair CLR 33.8 23 65% 29.74 0.0
04 21:55 N 9 10.00 Fair CLR 33.8 24.8 70% 27 29.74 0.0
04 21:35 N 12 10.00 Fair CLR 35.6 24.8 65% 28 29.73 0.0
04 21:15 N 12 10.00 Partly Cloudy SCT060 37.4 26.6 65% 30 29.72 0.0
04 20:55 N 14 10.00 Mostly Cloudy SCT048 BKN060 BKN095 39.2 26.6 61% 32 29.71 0.0
04 20:35 NW 17 10.00 Overcast BKN050 BKN055 OVC090 39.2 26.6 61% 31 29.7 0.0
04 20:15 NW 13 10.00 Overcast SCT050 SCT065 OVC075 39.2 30.2 70% 32 29.7 0.0
04 19:55 NW 12 10.00 Mostly Cloudy SCT020 SCT031 BKN075 39.2 32 75% 33 29.69 0.0
04 19:35 NW 24 G 30 10.00 Mostly Cloudy and Breezy SCT026 SCT041 BKN060 42.8 30.2 61% 34 29.68 0.0
04 19:15 NW 16 G 21 10.00 Mostly Cloudy SCT040 BKN070 BKN090 42.8 28.4 57% 36 29.67 0.0
04 18:55 NW 17 10.00 Partly Cloudy SCT038 SCT046 SCT065 41 30.2 66% 33 29.67 0.0
04 18:35 NW 21 10.00 Mostly Cloudy and Breezy SCT042 SCT060 BKN075 44.6 30.2 57% 37 29.66 0.0
04 18:15 NW 16 G 23 10.00 Overcast SCT048 OVC060 42.8 28.4 57% 36 29.66 0.0
04 17:55 NW 21 G 26 10.00 Overcast and Breezy BKN046 OVC060 42.8 26.6 53% 35 29.66 0.0
04 17:35 NW 18 G 28 10.00 Mostly Cloudy SCT028 SCT042 BKN049 42.8 28.4 57% 35 29.65 0.0
04 17:15 NW 22 G 28 10.00 Mostly Cloudy and Breezy SCT048 BKN055 BKN075 44.6 28.4 53% 37 29.64 0.0
04 16:55 NW 15 G 22 10.00 Mostly Cloudy SCT046 SCT055 BKN070 44.6 32 61% 38 29.64 0.0
04 16:35 NW 8 10.00 Mostly Cloudy SCT017 SCT031 BKN046 42.8 33.8 71% 39 29.63 0.0
04 16:15 NW 24 G 30 10.00 Drizzle and Breezy SCT022 SCT040 BKN046 42.8 33.8 71% 34 29.63 0.0
04 15:55 NW 16 G 20 10.00 Partly Cloudy SCT060 48.2 30.2 50% 43 29.61 0.0
04 15:35 W 16 10.00 Partly Cloudy SCT037 SCT060 42.8 32 66% 36 29.62 0.0
04 15:15 NW 17 10.00 Mostly Cloudy SCT027 SCT036 BKN050 41 32 70% 33 29.63 0.0
04 14:55 NW 18 G 28 10.00 Overcast SCT027 BKN050 OVC055 44.6 26.6 49% 37 29.62 0.0
04 14:35 NW 17 10.00 Overcast OVC060 44.6 26.6 49% 38 29.6 0.0
04 14:15 NW 18 G 25 10.00 Overcast OVC060 46.4 24.8 43% 40 29.6 0.0
04 13:55 NW 23 G 30 10.00 Mostly Cloudy and Breezy BKN070 46.4 24.8 43% 39 29.59 0.0
04 13:35 NW 22 G 26 10.00 Overcast and Breezy OVC060 46.4 24.8 43% 39 29.58 0.0
04 13:15 NW 17 G 35 10.00 Overcast OVC070 46.4 23 40% 40 29.58 0.0
04 12:55 N 23 G 32 10.00 Overcast and Breezy OVC060 46.4 24.8 43% 39 29.58 0.0
04 12:35 N 25 G 32 10.00 Overcast and Breezy OVC060 44.6 24.8 46% 36 29.58 0.0
04 12:15 NW 21 G 29 10.00 Overcast and Breezy OVC050 44.6 26.6 49% 37 29.57 0.0
04 11:55 NW 23 G 36 10.00 Overcast and Breezy OVC050 44.6 26.6 49% 37 29.57 0.0
04 11:35 NW 22 G 33 10.00 Overcast and Breezy OVC050 44.6 26.6 49% 37 29.56 0.0
04 11:15 NW 25 G 31 10.00 Overcast and Breezy OVC050 44.6 26.6 49% 36 29.56 0.0
04 10:55 NW 25 G 36 10.00 Overcast and Breezy OVC048 44.6 28.4 53% 36 29.55 0.0
04 10:35 NW 24 G 32 10.00 Mostly Cloudy and Breezy SCT042 BKN050 44.6 28.4 53% 36 29.54 0.0
04 10:15 N 30 G 36 10.00 Partly Cloudy and Windy SCT039 SCT044 44.6 28.4 53% 35 29.54 0.0
04 09:55 N 29 G 39 10.00 Partly Cloudy and Windy SCT039 44.6 30.2 57% 36 29.53 0.0
04 09:35 NW 29 G 35 10.00 Partly Cloudy and Windy SCT029 SCT036 SCT043 42.8 30.2 61% 33 29.53 0.0
04 09:15 NW 24 G 31 10.00 Mostly Cloudy and Breezy BKN029 BKN036 42.8 32 66% 34 29.53 0.0
04 08:55 N 28 G 33 10.00 Partly Cloudy and Windy SCT027 42.8 32 66% 33 29.51 0.0
04 08:35 NW 29 G 36 10.00 Mostly Cloudy and Windy BKN027 42.8 32 66% 33 29.51 0.0
04 08:15 NW 26 G 35 10.00 Partly Cloudy and Windy SCT025 42.8 32 66% 34 29.5 0.0
04 07:55 NW 18 G 32 10.00 Mostly Cloudy BKN025 BKN033 41 33.8 76% 33 29.5 0.0
04 07:35 N 18 G 28 10.00 Overcast SCT025 BKN033 OVC050 42.8 35.6 76% 35 29.49 0.0
04 07:15 NW 24 G 35 10.00 Overcast and Breezy OVC050 41 33.8 76% 32 29.47 0.0
04 06:55 NW 21 G 29 10.00 Overcast and Breezy OVC050 41 33.8 76% 32 29.46 0.0
04 06:35 NW 16 10.00 Overcast SCT041 OVC049 42.8 35.6 76% 36 29.45 0.0
04 06:15 NW 22 G 31 10.00 Overcast and Breezy BKN036 OVC042 42.8 35.6 76% 34 29.43 0.0
04 05:55 NW 23 G 32 10.00 Overcast and Breezy BKN036 OVC042 42.8 35.6 76% 34 29.43 0.0
04 05:35 NW 26 10.00 Overcast and Windy BKN044 OVC050 42.8 35.6 76% 34 29.41 0.0
04 05:15 NW 16 10.00 Overcast SCT026 OVC043 42.8 39.2 87% 36 29.4 0.0
04 04:55 N 21 10.00 Overcast and Breezy BKN028 BKN036 OVC042 44.6 37.4 76% 37 29.38 0.0
04 04:35 NW 26 G 32 10.00 Mostly Cloudy and Windy SCT040 BKN046 46.4 39.2 76% 38 29.37 0.0
04 04:15 NW 18 10.00 Fair CLR 46.4 41 82% 40 29.35 0.0
04 03:55 W 16 10.00 Fair CLR 46.4 41 82% 40 29.35 0.0
04 03:35 W 17 10.00 Fair CLR 46.4 41 82% 40 29.34 0.0
04 03:15 W 15 10.00 Partly Cloudy SCT085 48.2 42.8 82% 43 29.34 0.0
04 02:55 W 13 G 20 10.00 Overcast SCT036 BKN065 OVC085 48.2 42.8 82% 43 29.34 0.0
04 02:35 Calm 10.00 Light Rain SCT037 BKN044 OVC065 46.4 42.8 87% 29.35 0.0
04 02:15 NW 20 10.00 Rain SCT043 OVC065 48.2 41 76% 42 29.37 0.0
04 01:55 NW 20 G 30 10.00 Mostly Cloudy BKN065 BKN110 50 39.2 67% 44 29.38 0.0
04 01:35 N 22 G 31 10.00 Mostly Cloudy and Breezy SCT065 BKN110 51.8 39.2 62% 29.37 0.0
04 01:15 N 26 G 37 10.00 Partly Cloudy and Windy SCT120 51.8 39.2 62% 29.37 0.0
04 00:55 N 33 G 41 10.00 Partly Cloudy and Windy SCT100 53.6 39.2 58% 29.36 0.0
04 00:35 N 37 G 47 10.00 Overcast and Windy OVC100 55.4 39.2 55% 29.34 0.0
04 00:15 NW 13 10.00 Overcast SCT075 OVC100 60.8 42.8 52% 29.31 0.0
03 23:55 W 10 10.00 Overcast OVC100 62.6 37.4 39% 29.28 0.0
03 23:35 SW 10 10.00 Overcast OVC110 64.4 37.4 37% 29.27 0.0
03 23:15 W 15 10.00 Mostly Cloudy SCT070 SCT090 BKN110 64.4 35.6 34% 29.29 0.0
03 22:55 W 14 10.00 Overcast SCT070 BKN085 OVC110 64.4 37.4 37% 29.31 0.0
03 22:35 W 21 G 29 10.00 Overcast and Breezy SCT080 OVC110 66.2 37.4 35% 29.32 0.0
03 22:15 SW 20 10.00 Mostly Cloudy BKN120 66.2 35.6 32% 29.28 0.0
03 21:55 SW 18 10.00 Partly Cloudy SCT120 66.2 35.6 32% 29.3 0.0
03 21:35 SW 17 10.00 Partly Cloudy SCT120 66.2 35.6 32% 29.31 0.0
03 21:15 SW 16 G 22 10.00 Partly Cloudy SCT120 66.2 33.8 30% 29.33 0.0
03 20:55 SW 14 10.00 Partly Cloudy SCT120 68 33.8 28% 29.34 0.0
03 20:35 SW 16 10.00 Fair CLR 69.8 33.8 27% 29.36 0.0
03 20:15 SW 17 G 24 10.00 Fair CLR 71.6 33.8 25% 29.37 0.0
03 19:55 SW 18 10.00 Fair CLR 71.6 33.8 25% 29.38 0.0
03 19:35 SW 18 10.00 Fair CLR 71.6 33.8 25% 29.4 0.0
03 19:15 SW 17 G 26 10.00 Fair CLR 71.6 33.8 25% 29.41 0.0
03 18:55 W 22 10.00 Fair and Breezy CLR 73.4 33.8 23% 29.42 0.0
03 18:35 W 23 G 26 10.00 Fair and Breezy CLR 73.4 35.6 25% 29.43 0.0
03 18:15 SW 20 G 28 10.00 Fair CLR 73.4 35.6 25% 29.45 0.0
03 17:55 SW 23 G 29 10.00 Fair and Breezy CLR 73.4 33.8 23% 29.46 0.0
03 17:35 W 20 10.00 Fair CLR 73.4 35.6 25% 29.47 0.0
03 17:15 W 25 G 30 10.00 Fair and Breezy CLR 71.6 33.8 25% 29.49 0.0
03 16:55 SW 24 G 30 10.00 Partly Cloudy and Breezy SCT095 71.6 33.8 25% 29.5 0.0
03 16:35 W 24 G 33 10.00 Partly Cloudy and Breezy SCT095 71.6 33.8 25% 29.52 0.0
03 16:15 W 18 G 26 10.00 Fair CLR 73.4 35.6 25% 29.54 0.0
03 15:55 W 25 G 32 10.00 Partly Cloudy and Breezy SCT095 73.4 35.6 25% 29.56 0.0
03 15:35 W 25 G 30 10.00 Mostly Cloudy and Breezy BKN095 71.6 35.6 27% 29.57 0.0
03 15:15 W 20 G 36 10.00 Partly Cloudy SCT095 71.6 35.6 27% 29.58 0.0
03 14:55 W 22 G 29 10.00 Partly Cloudy and Breezy SCT095 71.6 35.6 27% 29.6 0.0
03 14:35 W 20 G 26 10.00 Partly Cloudy SCT095 71.6 35.6 27% 29.61 0.0
03 14:15 W 17 G 25 10.00 Fair CLR 69.8 35.6 29% 29.62 0.0
03 13:55 W 17 G 24 10.00 Fair CLR 69.8 35.6 29% 29.64 0.0
03 13:35 NW 12 G 21 10.00 Fair CLR 69.8 35.6 29% 29.66 0.0
03 13:15 W 17 G 22 10.00 Fair CLR 68 33.8 28% 29.68 0.0
03 12:55 W 14 G 22 10.00 Fair CLR 66.2 32 28% 29.69 0.0
03 12:35 W 17 G 23 10.00 Fair CLR 64.4 30.2 28% 29.71 0.0
03 12:15 W 13 G 25 10.00 Fair CLR 64.4 30.2 28% 29.72 0.0
03 11:55 W 14 G 24 10.00 Fair CLR 62.6 30.2 30% 29.74 0.0
03 11:35 W 17 G 22 10.00 Fair CLR 60.8 30.2 31% 29.75 0.0
03 11:15 SW 12 G 18 10.00 Fair CLR 60.8 28.4 29% 29.75 0.0
03 10:55 W 10 10.00 Fair CLR 59 28.4 31% 29.76 0.0
03 10:35 Calm 10.00 Fair CLR 57.2 28.4 33% 29.77 0.0
03 10:15 Calm 10.00 Fair CLR 55.4 30.2 38% 29.78 0.0
03 09:55 Calm 10.00 Fair CLR 53.6 30.2 41% 29.78 0.0
03 09:35 Calm 10.00 Fair CLR 51.8 32 47% 29.79 0.0
03 09:15 Calm 10.00 Fair CLR 51.8 32 47% 29.8 0.0
03 08:55 Calm 10.00 Fair CLR 48.2 30.2 50% 29.8 0.0
03 08:35 Calm 10.00 Fair CLR 46.4 30.2 53% 29.8 0.0
03 08:15 Calm 10.00 Fair CLR 44.6 30.2 57% 29.8 0.0
03 07:55 Calm 10.00 Fair CLR 41 30.2 66% 29.8 0.0
03 07:35 Calm 10.00 Fair CLR 39.2 30.2 70% 29.8 0.0
03 07:15 Calm 10.00 Fair CLR 37.4 30.2 75% 29.8 0.0
03 06:55 Calm 10.00 Fair CLR 35.6 28.4 75% 29.79 0.0
03 06:35 Calm 10.00 Fair CLR 33.8 28.4 81% 29.79 0.0
03 06:15 Calm 10.00 Fair CLR 32 28.4 87% 29.79 0.0
03 05:55 Calm 10.00 Fair CLR 32 28.4 87% 29.79 0.0
03 05:35 Calm 10.00 Fair CLR 32 28.4 87% 29.78 0.0
03 05:15 Calm 10.00 Fair CLR 33.8 28.4 81% 29.78 0.0
03 04:55 Calm 10.00 Fair CLR 35.6 30.2 81% 29.77 0.0
03 04:35 N 8 10.00 Fair CLR 35.6 30.2 81% 30 29.77 0.0
03 04:15 Calm 10.00 Fair CLR 35.6 30.2 81% 29.77 0.0
03 03:55 N 10 10.00 Fair CLR 37.4 30.2 75% 31 29.77 0.0
03 03:35 N 13 10.00 Fair CLR 39.2 30.2 70% 32 29.77 0.0
03 03:15 N 12 10.00 Fair CLR 39.2 32 75% 33 29.76 0.0
03 02:55 NW 12 10.00 Fair CLR 41 33.8 76% 35 29.76 0.0
03 02:35 NW 9 10.00 Fair CLR 39.2 33.8 81% 34 29.76 0.0
03 02:15 Calm 10.00 Fair CLR 42.8 35.6 76% 29.75 0.0
03 01:55 N 10 10.00 Fair CLR 42.8 35.6 76% 38 29.75 0.0
03 01:35 N 12 10.00 Fair CLR 44.6 35.6 71% 39 29.75 0.0
03 01:15 N 12 10.00 Fair CLR 44.6 37.4 76% 39 29.75 0.0
03 00:55 N 13 10.00 Fair CLR 46.4 37.4 71% 41 29.75 0.0
03 00:35 N 7 10.00 Fair CLR 44.6 37.4 76% 41 29.75 0.0
03 00:15 N 12 10.00 Fair CLR 46.4 39.2 76% 42 29.75 0.0
02 23:55 Calm 10.00 Fair CLR 44.6 37.4 76% 29.74 0.0
02 23:35 NW 9 10.00 Fair CLR 44.6 37.4 76% 40 29.74 0.0
Date Time (cdt) Wind (mph) Vis. (mi.) Weather Sky Cond. Air Dwpt Max. Min. Relative Humidity Wind Chill (°F) Heat Index (°F) altimeter (in) sea level (mb) 1 hr 3 hr 6 hr
6 hour
Temperature (ºF) Pressure Precipitation (in)